< < Back
Terminal Aerodrome Forecast


Current Version              Previous Versions:   1  2  3  4  5  6  7  8  9  

Terminal Aerodrome Forecast

762
FTUS42 KILM 181100
TAFFLO
TAF
KFLO 181121Z 1812/1912 04012KT P6SM BKN060 BKN140
     FM182000 04013KT 6SM -RA BKN030 OVC050
     FM182200 03012KT 4SM RA BR BKN025 OVC045
     FM190300 04011KT 2SM RA BR BKN006 OVC025=



Latest METAR

806
SAUS70 KWBC 181300 RRK
MTRFLO
METAR KFLO 181253Z 06010KT 10SM OVC060 10/04 A3036 RMK AO2 SLP277
T01000039


USA.gov is the U.S. government's official web portal to all federal, state and local government web resources and services.